Flight Track Log - Related Links

Times and Time Zones

All times are in EDT time to prevent confusion due to time zone crossing. See the DAL3860 flight status page for this flight to view local times or setup timezone preferences in your user account.

Time Position Orientation Groundspeed Altitude Reporting Facility
EDT Latitude Longitude Course Direction KTS MPH feet Rate Location/Type
Mon 09:12:22 AM 41.4194 -81.8347 252° West 156 180 1,800  Level Cleveland Center
Mon 09:13:29 AM 41.4781 -81.8136 15° North 226 260 4,000 1,902 Climbing Cleveland Center
Mon 09:14:25 AM 41.5192 -81.8561 322° Northwest 257 296 5,700 2,017 Climbing Cleveland Center
Mon 09:15:00 AM 41.3302 -82.3793 252° West  Level FlightAware Approximate
Mon 09:15:25 AM 41.5389 -81.9536 285° West 254 292 7,900  Level Cleveland Center
Mon 09:16:00 AM 41.3000 -82.5088 270° West  Level FlightAware Approximate
Mon 09:16:25 AM 41.4983 -82.0469 240° Southwest 252 290 10,500  Level Cleveland Center
Mon 09:17:00 AM 41.2854 -82.6416 252° West  Level FlightAware Approximate
Mon 09:17:25 AM 41.4572 -82.1458 241° Southwest 288 331 12,000  Level Cleveland Center
Mon 09:18:25 AM 41.4142 -82.2500 241° Southwest 320 368 14,100 2,150 Climbing Cleveland Center
Mon 09:19:25 AM 41.3708 -82.3622 243° Southwest 331 381 16,300 2,000 Climbing Cleveland Center
Mon 09:20:25 AM 41.3272 -82.4717 242° Southwest 341 392 18,100 1,350 Climbing Cleveland Center
Mon 09:21:25 AM 41.2981 -82.5925 252° West 341 392 19,000 850 Climbing Cleveland Center
Mon 09:22:25 AM 41.2792 -82.7244 259° West 356 410 19,800 900 Climbing Cleveland Center
Mon 09:23:25 AM 41.2597 -82.8619 259° West 375 432 20,800 1,000 Climbing Cleveland Center
Mon 09:24:25 AM 41.2486 -82.9997 264° West 380 437 21,800 950 Climbing Cleveland Center
Mon 09:25:25 AM 41.2894 -83.1367 292° West 385 443 22,700 1,000 Climbing Cleveland Center
Mon 09:26:25 AM 41.3322 -83.2683 293° West 390 449 23,800 2,650 Climbing Cleveland Center
Mon 09:27:25 AM 41.3728 -83.4056 292° West 395 455 28,000 1,000 Climbing Cleveland Center
Mon 09:28:25 AM 41.4172 -83.5406 294° West 395 455 25,800 -750 Descending Cleveland Center
Mon 09:29:25 AM 41.4511 -83.6778 288° West 395 455 26,500 700 Climbing Cleveland Center
Mon 09:30:25 AM 41.4553 -83.8247 272° West 389 448 27,200 700 Climbing Cleveland Center
Mon 09:31:25 AM 41.4617 -83.9694 273° West 395 455 27,900 400 Climbing Cleveland Center
Mon 09:32:25 AM 41.4675 -84.1219 273° West 401 461 28,000 50 Climbing Cleveland Center
Mon 09:33:25 AM 41.4750 -84.2750 274° West 406 467 28,000  Level Cleveland Center
Mon 09:34:25 AM 41.4803 -84.4333 273° West 419 482 28,000  Level Cleveland Center
Mon 09:36:25 AM 41.4919 -84.7447 273° West 435 501 28,000  Level Chicago Center
Mon 09:37:27 AM 41.4961 -84.9042 272° West 432 497 28,000  Level Chicago Center
Mon 09:38:29 AM 41.5014 -85.0617 273° West 428 493 28,000  Level Chicago Center
Mon 09:39:31 AM 41.5053 -85.2206 272° West 426 490 28,000  Level Chicago Center
Mon 09:40:33 AM 41.5092 -85.3831 272° West 428 493 28,000  Level Chicago Center
Mon 09:41:35 AM 41.5133 -85.5461 272° West 429 494 28,000  Level Chicago Center
Mon 09:42:37 AM 41.5175 -85.7050 272° West 428 493 28,000  Level Chicago Center
Mon 09:43:39 AM 41.5219 -85.8961 272° West 427 491 28,000  Level Chicago Center
Mon 09:44:41 AM 41.5400 -86.0506 279° West 427 491 28,000  Level Chicago Center
Mon 09:45:43 AM 41.6219 -86.1661 314° West 433 498 28,000  Level Chicago Center
Mon 09:46:45 AM 41.7081 -86.2797 315° West 435 501 28,000  Level Chicago Center
Mon 09:47:47 AM 41.7942 -86.3969 315° West 438 504 28,000  Level Chicago Center
Mon 09:48:49 AM 41.8772 -86.5133 314° West 435 501 28,000  Level Chicago Center
Mon 09:49:51 AM 41.9619 -86.6292 315° West 435 501 28,000  Level Chicago Center
Mon 09:50:53 AM 42.0567 -86.7619 314° West 433 498 28,000  Level Chicago Center
Mon 09:51:55 AM 42.1389 -86.8789 313° West 433 498 28,000  Level Chicago Center
Mon 09:52:57 AM 42.2211 -86.9933 314° West 430 495 28,000  Level Chicago Center
Mon 09:53:59 AM 42.3181 -87.1314 314° West 425 489 28,000  Level Chicago Center
Mon 09:55:00 AM 42.3997 -87.2478 314° West 430 495 28,000  Level Chicago Center
Mon 09:56:02 AM 42.4814 -87.3639 314° West 429 494 28,000  Level Chicago Center
Mon 09:57:04 AM 42.5383 -87.5025 299° West 425 489 28,000  Level Chicago Center
Mon 09:58:06 AM 42.5972 -87.6564 298° West 422 486 28,000  Level Chicago Center
Mon 09:59:08 AM 42.6514 -87.7986 297° West 423 487 28,000  Level Chicago Center
Mon 10:00:10 AM 42.7056 -87.9389 298° West 418 481 28,000  Level Chicago Center
Mon 10:01:12 AM 42.7597 -88.0797 298° West 418 481 28,000  Level Chicago Center
Mon 10:02:13 AM 42.8219 -88.2433 297° West 417 480 28,000  Level Chicago Center
Mon 10:03:15 AM 42.8756 -88.3833 298° West 415 478 28,000  Level Chicago Center
Mon 10:04:17 AM 42.9289 -88.5239 297° West 415 478 28,000  Level Chicago Center
Mon 10:05:19 AM 42.9817 -88.6647 297° West 414 476 28,000  Level Chicago Center
Mon 10:06:21 AM 43.0347 -88.8058 297° West 413 475 28,000  Level Chicago Center
Mon 10:07:23 AM 43.0878 -88.9467 297° West 414 476 28,000  Level Chicago Center
Mon 10:08:25 AM 43.1397 -89.0883 297° West 414 476 28,000  Level Chicago Center
Mon 10:09:27 AM 43.1942 -89.2314 298° West 419 482 28,000  Level Chicago Center
Mon 10:10:29 AM 43.2544 -89.3967 297° West 415 478 28,000  Level Chicago Center
Mon 10:11:31 AM 43.3067 -89.5408 297° West 419 482 28,000  Level Chicago Center
Mon 10:12:33 AM 43.3575 -89.6836 296° West 416 479 28,000  Level Chicago Center
Mon 10:13:35 AM 43.4086 -89.8283 296° West 418 481 28,000  Level Chicago Center
Mon 10:14:22 AM 43.4525 -89.9486 297° West 419 482 28,000  Level Minneapolis Center
Mon 10:15:24 AM 43.5036 -90.0936 296° West 421 484 28,000  Level Minneapolis Center
Mon 10:16:25 AM 43.5758 -90.2225 308° West 427 491 28,000  Level Minneapolis Center
Mon 10:17:27 AM 43.6628 -90.3583 312° West 430 495 28,000  Level Minneapolis Center
Mon 10:18:28 AM 43.7408 -90.4797 312° West 428 493 28,000  Level Minneapolis Center
Mon 10:19:30 AM 43.8181 -90.6014 311° West 427 491 28,000  Level Minneapolis Center
Mon 10:20:31 AM 43.8956 -90.7236 311° West 426 490 28,000  Level Minneapolis Center
Mon 10:21:33 AM 43.9725 -90.8447 311° West 424 488 28,000  Level Minneapolis Center
Mon 10:22:34 AM 44.0497 -90.9664 311° West 423 487 28,000  Level Minneapolis Center
Mon 10:23:36 AM 44.1425 -91.1114 312° West 423 487 28,000  Level Minneapolis Center
Mon 10:24:37 AM 44.2194 -91.2361 311° West 426 490 28,000 -439 Level Minneapolis Center
Mon 10:25:39 AM 44.2942 -91.3553 311° West 427 491 27,100 -1,561 Descending Minneapolis Center
Mon 10:26:40 AM 44.3717 -91.4817 311° West 430 495 24,800 -2,244 Descending Minneapolis Center
Mon 10:27:42 AM 44.4486 -91.6042 311° West 424 488 22,500 -2,488 Descending Minneapolis Center
Mon 10:28:43 AM 44.5361 -91.7489 310° West 410 472 19,700 -2,390 Descending Minneapolis Center
Mon 10:29:45 AM 44.6081 -91.8675 310° West 403 464 17,600 -2,067 Descending Minneapolis Center
Mon 10:30:13 AM 44.6511 -91.9167 321° Northwest 393 452 16,600 -2,125 Descending FAA TRACON SMA TRACON (SMA)
Mon 10:30:33 AM 44.6728 -91.9542 309° West 401 461 15,900 -2,400 Descending FAA TRACON SMA TRACON (SMA)
Mon 10:30:53 AM 44.7006 -92.0006 310° West 405 466 15,000 -2,400 Descending FAA TRACON SMA TRACON (SMA)
Mon 10:31:13 AM 44.7214 -92.0375 308° West 400 460 14,300 -1,950 Descending FAA TRACON SMA TRACON (SMA)
Mon 10:31:33 AM 44.7433 -92.0736 311° West 397 457 13,700 -2,100 Descending FAA TRACON SMA TRACON (SMA)
Mon 10:31:53 AM 44.7692 -92.1186 309° West 387 445 12,900 -2,100 Descending FAA TRACON SMA TRACON (SMA)
Mon 10:32:33 AM 44.8103 -92.1883 310° West 378 435 11,600 -2,100 Descending FAA TRACON SMA TRACON (SMA)
Mon 10:32:53 AM 44.8356 -92.2306 310° West 373 429 10,800 -2,250 Descending FAA TRACON SMA TRACON (SMA)
Mon 10:33:13 AM 44.8553 -92.2644 309° West 370 426 10,100 -1,200 Descending FAA TRACON SMA TRACON (SMA)
Mon 10:33:33 AM 44.8672 -92.3128 289° West 352 405 10,000 -150 Descending FAA TRACON SMA TRACON (SMA)
Mon 10:33:53 AM 44.8664 -92.3525 268° West 335 386 10,000  Level FAA TRACON SMA TRACON (SMA)
Mon 10:34:13 AM 44.8564 -92.3906 250° West 334 384 10,000 -146 Level FAA TRACON SMA TRACON (SMA)
Mon 10:34:34 AM 44.8406 -92.4325 242° Southwest 324 373 9,900 -150 Descending FAA TRACON SMA TRACON (SMA)
Mon 10:34:53 AM 44.8264 -92.4617 236° Southwest 305 351 9,900 -150 Level FAA TRACON SMA TRACON (SMA)
Mon 10:35:14 AM 44.8133 -92.4872 234° Southwest 276 318 9,800 -1,050 Descending FAA TRACON SMA TRACON (SMA)
Mon 10:35:33 AM 44.7983 -92.5183 236° Southwest 255 293 9,200 -1,231 Descending FAA TRACON SMA TRACON (SMA)
Mon 10:35:53 AM 44.7844 -92.5439 233° Southwest 255 293 9,000 -293 Descending FAA TRACON SMA TRACON (SMA)
Mon 10:36:14 AM 44.7717 -92.5694 235° Southwest 258 297 9,000  Level FAA TRACON SMA TRACON (SMA)
Mon 10:36:34 AM 44.7544 -92.6025 234° Southwest 268 308 9,000 -462 Level FAA TRACON SMA TRACON (SMA)
Mon 10:36:53 AM 44.7414 -92.6283 235° Southwest 269 310 8,700 -1,077 Descending FAA TRACON SMA TRACON (SMA)
Mon 10:37:13 AM 44.7283 -92.6542 235° Southwest 265 305 8,300 -1,500 Descending FAA TRACON SMA TRACON (SMA)
Mon 10:37:33 AM 44.7169 -92.6811 239° Southwest 262 302 7,700 -1,950 Descending FAA TRACON SMA TRACON (SMA)
Mon 10:37:53 AM 44.7144 -92.7206 265° West 264 304 7,000 -1,800 Descending FAA TRACON SMA TRACON (SMA)
Mon 10:38:13 AM 44.7153 -92.7514 272° West 260 299 6,500 -1,500 Descending FAA TRACON SMA TRACON (SMA)
Mon 10:38:33 AM 44.7147 -92.7828 269° West 259 298 6,000 -750 Descending FAA TRACON SMA TRACON (SMA)
Mon 10:38:53 AM 44.7150 -92.8214 271° West 257 296 6,000  Level FAA TRACON SMA TRACON (SMA)
Mon 10:39:13 AM 44.7217 -92.8514 287° West 265 305 6,000  Level FAA TRACON SMA TRACON (SMA)
Mon 10:39:33 AM 44.7333 -92.8792 301° West 268 308 6,000 -600 Level FAA TRACON SMA TRACON (SMA)
Mon 10:39:53 AM 44.7486 -92.9111 304° West 258 297 5,600 -1,050 Descending FAA TRACON SMA TRACON (SMA)
Mon 10:40:13 AM 44.7589 -92.9350 301° West 240 276 5,300 -1,050 Descending FAA TRACON SMA TRACON (SMA)
Mon 10:40:33 AM 44.7683 -92.9578 300° West 223 257 4,900 -900 Descending FAA TRACON SMA TRACON (SMA)
Mon 10:40:53 AM 44.7797 -92.9842 301° West 206 237 4,700 -1,050 Descending FAA TRACON SMA TRACON (SMA)
Mon 10:41:13 AM 44.7881 -93.0050 299° West 200 230 4,200 -1,500 Descending FAA TRACON SMA TRACON (SMA)

Login

Don't have an account? Register now (free) for customized features, flight alerts, and more!